createdAt,value
2018-12-02T00:02:06.045Z,1.20
2018-12-02T00:04:37.823Z,1.32
2018-12-02T00:07:23.753Z,0.90
2018-12-02T00:09:53.470Z,2.42
2018-12-02T00:12:23.269Z,2.10
2018-12-02T00:14:52.954Z,1.37
2018-12-02T00:17:22.953Z,2.10
2018-12-02T00:19:52.752Z,3.35
2018-12-02T00:22:22.540Z,1.72
2018-12-02T00:24:52.369Z,1.40
2018-12-02T00:27:22.107Z,2.08
2018-12-02T00:29:51.750Z,1.90
2018-12-02T00:32:21.582Z,1.45
2018-12-02T00:34:51.280Z,1.05
2018-12-02T00:37:21.545Z,1.00
2018-12-02T00:39:51.838Z,1.05
2018-12-02T00:42:21.613Z,1.15
2018-12-02T00:44:51.898Z,0.95
2018-12-02T00:47:21.693Z,0.98
2018-12-02T00:52:49.601Z,0.82
2018-12-02T00:55:36.136Z,0.93
2018-12-02T00:58:06.076Z,1.50
2018-12-02T01:00:36.053Z,0.60
2018-12-02T01:03:07.036Z,0.95
2018-12-02T01:05:36.584Z,0.68
2018-12-02T01:08:07.358Z,0.95
2018-12-02T01:10:37.396Z,1.67
2018-12-02T01:13:09.983Z,0.70
2018-12-02T01:15:42.146Z,1.10
2018-12-02T01:18:13.429Z,0.65
2018-12-02T01:20:45.595Z,0.80
2018-12-02T01:23:17.823Z,1.07
2018-12-02T01:25:47.169Z,1.40
2018-12-02T01:28:17.094Z,0.90
2018-12-02T01:30:46.469Z,1.50
2018-12-02T01:33:16.363Z,1.30
2018-12-02T01:35:45.756Z,0.83
2018-12-02T01:38:15.910Z,1.75
2018-12-02T01:40:48.270Z,1.17
2018-12-02T01:43:17.645Z,0.93
2018-12-02T01:45:47.591Z,1.02
2018-12-02T01:48:17.000Z,1.50
2018-12-02T01:50:46.412Z,1.05
2018-12-02T01:53:15.801Z,1.07
2018-12-02T01:55:45.743Z,1.52
2018-12-02T01:58:15.204Z,1.90
2018-12-02T02:00:45.164Z,1.35
2018-12-02T02:03:14.596Z,2.47
2018-12-02T02:05:43.940Z,0.77
2018-12-02T02:08:13.299Z,1.50
2018-12-02T02:10:43.232Z,1.17
2018-12-02T02:13:12.809Z,2.52
2018-12-02T02:15:42.235Z,1.50
2018-12-02T02:18:11.617Z,0.93
2018-12-02T02:20:41.517Z,0.90
2018-12-02T02:23:12.112Z,0.70
2018-12-02T02:25:49.977Z,1.02
2018-12-02T02:28:33.239Z,0.50
2018-12-02T02:31:02.597Z,0.70
2018-12-02T02:33:32.000Z,1.32
2018-12-02T02:36:01.397Z,1.80
2018-12-02T02:38:31.334Z,1.75
2018-12-02T02:41:00.751Z,1.20
2018-12-02T02:43:30.106Z,0.85
2018-12-02T02:45:59.807Z,0.70
2018-12-02T02:48:30.151Z,1.52
2018-12-02T02:50:59.665Z,1.82
2018-12-02T02:53:29.024Z,0.80
2018-12-02T02:55:58.974Z,0.80
2018-12-02T02:58:28.323Z,0.60
2018-12-02T03:00:57.707Z,0.70
2018-12-02T03:03:27.737Z,0.55
2018-12-02T03:05:59.852Z,0.78
2018-12-02T03:08:32.126Z,1.25
2018-12-02T03:11:04.675Z,1.10
2018-12-02T03:13:39.292Z,0.88
2018-12-02T03:16:18.967Z,1.20
2018-12-02T03:18:49.909Z,0.95
2018-12-02T03:21:20.867Z,0.62
2018-12-02T03:23:50.852Z,2.57
2018-12-02T03:26:20.255Z,0.60
2018-12-02T03:28:50.218Z,0.68
2018-12-02T03:31:19.565Z,0.77
2018-12-02T03:33:48.988Z,0.60
2018-12-02T03:36:18.943Z,1.50
2018-12-02T03:38:48.349Z,0.60
2018-12-02T03:41:17.841Z,0.88
2018-12-02T03:43:47.333Z,0.68
2018-12-02T03:46:16.704Z,0.53
2018-12-02T03:48:46.076Z,0.60
2018-12-02T03:51:16.172Z,0.50
2018-12-02T03:54:11.985Z,0.62
2018-12-02T03:56:45.545Z,0.60
2018-12-02T03:59:16.353Z,2.42
2018-12-02T04:01:46.375Z,0.53
2018-12-02T04:04:15.703Z,0.70
2018-12-02T04:06:44.778Z,0.50
2018-12-02T04:09:13.916Z,0.50
2018-12-02T04:11:43.395Z,0.40
2018-12-02T04:14:13.452Z,0.70
2018-12-02T04:16:47.447Z,0.60
2018-12-02T04:19:34.078Z,0.42
2018-12-02T04:22:03.471Z,0.50
2018-12-02T04:24:32.856Z,0.60
2018-12-02T04:27:02.370Z,0.57
2018-12-02T04:29:31.739Z,0.57
2018-12-02T04:32:01.675Z,0.53
2018-12-02T04:34:31.079Z,0.60
2018-12-02T04:37:01.207Z,0.50
2018-12-02T04:39:31.133Z,0.78
2018-12-02T04:42:00.556Z,0.50
2018-12-02T04:44:29.925Z,0.70
2018-12-02T04:46:59.507Z,0.60
2018-12-02T04:49:29.388Z,0.62
2018-12-02T04:51:59.386Z,1.32
2018-12-02T04:54:29.364Z,0.60
2018-12-02T04:56:58.719Z,0.57
2018-12-02T04:59:28.839Z,0.45
2018-12-02T05:01:58.209Z,0.60
2018-12-02T05:04:27.840Z,0.60
2018-12-02T05:06:57.328Z,0.50
2018-12-02T05:09:26.844Z,0.35
2018-12-02T05:11:56.360Z,1.35
2018-12-02T05:14:25.851Z,0.50
2018-12-02T05:16:55.545Z,0.60
2018-12-02T05:19:48.260Z,0.50
2018-12-02T05:22:17.605Z,0.50
2018-12-02T05:24:46.996Z,1.05
2018-12-02T05:27:16.907Z,1.22
2018-12-02T05:29:46.605Z,0.40
2018-12-02T05:32:16.015Z,0.53
2018-12-02T05:34:46.740Z,0.68
2018-12-02T05:37:16.145Z,0.60
2018-12-02T05:39:46.103Z,0.50
2018-12-02T05:42:20.732Z,0.50
2018-12-02T05:44:50.632Z,0.70
2018-12-02T05:47:20.043Z,0.40
2018-12-02T05:49:49.491Z,0.63
2018-12-02T05:52:18.619Z,0.30
2018-12-02T05:54:49.064Z,0.30
2018-12-02T05:57:19.992Z,0.33
2018-12-02T05:59:50.025Z,0.40
2018-12-02T06:02:42.806Z,0.47
2018-12-02T06:05:12.557Z,0.50
2018-12-02T06:07:41.939Z,0.40
2018-12-02T06:10:14.304Z,1.70
2018-12-02T06:12:43.732Z,0.30
2018-12-02T06:15:16.215Z,0.45
2018-12-02T06:17:46.164Z,0.57
2018-12-02T06:20:19.435Z,0.50
2018-12-02T06:22:50.322Z,0.50
2018-12-02T06:25:19.716Z,0.40
2018-12-02T06:27:49.672Z,0.53
2018-12-02T06:30:21.840Z,0.70
2018-12-02T06:32:55.074Z,0.83
2018-12-02T06:35:31.860Z,0.53
2018-12-02T06:40:45.211Z,0.50
2018-12-02T06:43:15.117Z,0.60
2018-12-02T06:45:44.493Z,0.65
2018-12-02T06:48:14.406Z,0.90
2018-12-02T06:50:44.315Z,0.57
2018-12-02T06:53:14.667Z,0.60
2018-12-02T06:55:48.960Z,0.50
2018-12-02T06:59:33.316Z,0.90
2018-12-02T07:03:13.172Z,0.65
2018-12-02T07:05:45.854Z,1.25
2018-12-02T07:08:15.223Z,0.62
2018-12-02T07:10:49.815Z,0.40
2018-12-02T07:13:42.620Z,0.60
2018-12-02T07:16:12.145Z,1.07
2018-12-02T07:18:43.475Z,0.57
2018-12-02T07:21:16.714Z,0.73
2018-12-02T07:23:50.967Z,0.60
2018-12-02T07:26:23.381Z,0.78
2018-12-02T07:28:54.614Z,0.50
2018-12-02T07:31:24.011Z,0.50
2018-12-02T07:33:58.823Z,0.40
2018-12-02T07:36:48.921Z,0.37
2018-12-02T07:40:38.183Z,0.75
2018-12-02T07:43:10.035Z,0.50
2018-12-02T07:45:39.541Z,0.65
2018-12-02T07:48:09.119Z,0.60
2018-12-02T07:50:40.149Z,0.70
2018-12-02T07:53:09.008Z,1.02
2018-12-02T07:55:38.428Z,0.70
2018-12-02T07:58:12.035Z,1.27
2018-12-02T08:00:41.467Z,0.70
2018-12-02T08:03:10.873Z,1.17
2018-12-02T08:05:40.901Z,0.75
2018-12-02T08:08:10.582Z,1.57
2018-12-02T08:10:39.990Z,0.80
2018-12-02T08:13:09.378Z,0.78
2018-12-02T08:15:38.762Z,1.27
2018-12-02T08:18:08.357Z,0.80
2018-12-02T08:20:39.061Z,0.47
2018-12-02T08:23:08.453Z,0.70
2018-12-02T08:25:37.810Z,0.65
2018-12-02T08:28:07.827Z,2.58
2018-12-02T08:30:37.258Z,2.55
2018-12-02T08:33:06.665Z,1.07
2018-12-02T08:35:37.864Z,2.10
2018-12-02T08:38:12.855Z,2.00
2018-12-02T08:40:51.036Z,1.27
2018-12-02T08:43:21.704Z,0.93
2018-12-02T08:45:51.096Z,1.85
2018-12-02T08:48:21.140Z,1.85
2018-12-02T08:50:50.604Z,4.73
2018-12-02T08:53:20.056Z,4.85
2018-12-02T08:55:49.520Z,4.90
2018-12-02T08:58:19.161Z,5.33
2018-12-02T09:00:48.579Z,8.58
2018-12-02T09:03:18.020Z,6.95
2018-12-02T09:05:47.436Z,5.92
2018-12-02T09:08:16.816Z,4.78
2018-12-02T09:10:46.389Z,7.10
2018-12-02T09:13:15.616Z,3.47
2018-12-02T09:15:45.647Z,4.80
2018-12-02T09:18:16.961Z,7.00
2018-12-02T09:20:49.043Z,9.55
2018-12-02T09:23:18.576Z,4.50
2018-12-02T09:25:56.386Z,4.20
2018-12-02T09:28:26.322Z,5.12
2018-12-02T09:30:56.306Z,5.53
2018-12-02T09:33:25.810Z,9.63
2018-12-02T09:35:55.778Z,5.05
2018-12-02T09:38:25.948Z,4.15
2018-12-02T09:40:55.403Z,5.65
2018-12-02T09:43:24.828Z,6.15
2018-12-02T09:45:54.824Z,6.72
2018-12-02T09:48:24.245Z,7.53
2018-12-02T09:50:54.273Z,8.75
2018-12-02T09:53:24.256Z,5.87
2018-12-02T09:56:24.464Z,7.92
2018-12-02T09:58:55.992Z,4.70
2018-12-02T10:01:25.391Z,4.90
2018-12-02T10:03:55.446Z,7.65
2018-12-02T10:06:25.403Z,6.80
2018-12-02T10:08:56.262Z,5.55
2018-12-02T10:11:26.194Z,4.42
2018-12-02T10:13:55.731Z,3.92
2018-12-02T10:16:25.734Z,5.15
2018-12-02T10:18:55.358Z,5.90
2018-12-02T10:21:25.372Z,6.30
2018-12-02T10:23:55.273Z,2.80
2018-12-02T10:26:24.933Z,3.22
2018-12-02T10:28:54.559Z,2.37
2018-12-02T10:31:24.074Z,3.92
2018-12-02T10:33:56.354Z,2.35
2018-12-02T10:36:26.888Z,4.12
2018-12-02T10:38:57.468Z,2.50
2018-12-02T10:41:28.110Z,3.90
2018-12-02T10:43:57.744Z,2.98
2018-12-02T10:46:27.272Z,4.22
2018-12-02T10:49:00.710Z,2.70
2018-12-02T10:51:30.712Z,2.15
2018-12-02T10:54:01.173Z,2.62
2018-12-02T10:56:32.534Z,9.70
2018-12-02T10:59:02.364Z,4.73
2018-12-02T11:01:37.753Z,2.37
2018-12-02T11:04:08.115Z,2.45
2018-12-02T11:06:37.869Z,3.62
2018-12-02T11:09:10.288Z,3.30
2018-12-02T11:11:39.792Z,1.80
2018-12-02T11:14:09.284Z,5.20
2018-12-02T11:16:39.246Z,4.42
2018-12-02T11:19:09.168Z,3.42
2018-12-02T11:21:39.856Z,2.75
2018-12-02T11:24:09.955Z,2.92
2018-12-02T11:26:43.274Z,3.72
2018-12-02T11:29:26.317Z,5.43
2018-12-02T11:32:01.746Z,4.28
2018-12-02T11:34:33.073Z,4.53
2018-12-02T11:37:04.513Z,5.90
2018-12-02T11:39:34.571Z,3.92
2018-12-02T11:42:04.795Z,5.03
2018-12-02T11:44:34.698Z,3.10
2018-12-02T11:47:04.355Z,2.70
2018-12-02T11:49:35.098Z,2.70
2018-12-02T11:52:04.809Z,2.85
2018-12-02T11:54:34.601Z,2.95
2018-12-02T11:57:06.565Z,2.42
2018-12-02T11:59:36.393Z,2.60
2018-12-02T12:02:07.768Z,1.77
2018-12-02T12:04:37.109Z,2.62
2018-12-02T12:07:07.510Z,1.57
2018-12-02T12:09:37.255Z,1.20
2018-12-02T12:12:07.220Z,2.37
2018-12-02T12:14:36.932Z,3.75
2018-12-02T12:17:06.840Z,2.35
2018-12-02T12:19:36.438Z,2.65
2018-12-02T12:22:06.980Z,2.67
2018-12-02T12:24:36.909Z,2.13
2018-12-02T12:27:06.572Z,4.15
2018-12-02T12:29:36.390Z,2.52
2018-12-02T12:32:06.562Z,2.72
2018-12-02T12:34:36.855Z,1.17
2018-12-02T12:37:07.147Z,1.92
2018-12-02T12:39:37.510Z,1.85
2018-12-02T12:42:07.325Z,1.70
2018-12-02T12:44:36.995Z,2.90
2018-12-02T12:47:11.545Z,3.60
2018-12-02T12:49:41.328Z,2.47
2018-12-02T12:52:11.199Z,5.03
2018-12-02T12:54:40.944Z,2.05
2018-12-02T12:57:11.051Z,1.95
2018-12-02T12:59:43.192Z,4.97
2018-12-02T13:02:20.296Z,3.63
2018-12-02T13:04:59.256Z,3.00
2018-12-02T13:07:29.850Z,2.12
2018-12-02T13:10:02.449Z,1.47
2018-12-02T13:12:32.142Z,2.70
2018-12-02T13:15:16.371Z,1.52
2018-12-02T13:18:03.584Z,2.00
2018-12-02T13:20:42.440Z,1.57
2018-12-02T13:23:13.023Z,1.62
2018-12-02T13:25:43.300Z,2.27
2018-12-02T13:28:12.998Z,0.80
2018-12-02T13:30:44.667Z,0.95
2018-12-02T13:33:15.562Z,1.65
2018-12-02T13:35:48.403Z,2.10
2018-12-02T13:38:19.419Z,2.35
2018-12-02T13:40:49.310Z,1.47
2018-12-02T13:43:21.084Z,2.15
2018-12-02T13:45:51.438Z,1.77
2018-12-02T13:48:21.285Z,1.67
2018-12-02T13:50:51.191Z,3.00
2018-12-02T13:53:36.980Z,2.60
2018-12-02T13:56:07.125Z,2.03
2018-12-02T13:58:36.969Z,1.25
2018-12-02T14:01:06.715Z,1.52
2018-12-02T14:03:38.750Z,1.90
2018-12-02T14:06:09.196Z,1.77
2018-12-02T14:08:41.872Z,1.15
2018-12-02T14:11:20.401Z,1.25
2018-12-02T14:14:09.758Z,2.30
2018-12-02T14:16:42.631Z,0.85
2018-12-02T14:19:20.947Z,1.50
2018-12-02T14:21:51.274Z,0.88
2018-12-02T14:24:27.799Z,1.70
2018-12-02T14:27:04.280Z,1.15
2018-12-02T14:29:37.994Z,1.07
2018-12-02T14:32:13.907Z,0.57
2018-12-02T14:34:45.129Z,0.80
2018-12-02T14:37:17.312Z,0.93
2018-12-02T14:39:47.330Z,1.20
2018-12-02T14:42:20.770Z,1.20
2018-12-02T14:44:52.912Z,0.90
2018-12-02T14:47:31.733Z,1.67
2018-12-02T14:50:01.562Z,0.80
2018-12-02T14:52:46.928Z,1.15
2018-12-02T14:55:18.187Z,1.27
2018-12-02T14:58:03.498Z,0.62
2018-12-02T15:00:33.714Z,0.62
2018-12-02T15:03:05.390Z,1.25
2018-12-02T15:05:38.723Z,0.72
2018-12-02T15:08:10.251Z,0.93
2018-12-02T15:10:41.392Z,0.40
2018-12-02T15:13:11.242Z,0.40
2018-12-02T15:15:41.274Z,0.93
2018-12-02T15:18:10.899Z,0.72
2018-12-02T15:20:42.070Z,0.53
2018-12-02T15:23:12.454Z,0.65
2018-12-02T15:25:45.524Z,0.55
2018-12-02T15:28:15.236Z,0.72
2018-12-02T15:30:58.977Z,0.45
2018-12-02T15:33:28.861Z,0.40
2018-12-02T15:36:02.240Z,0.75
2018-12-02T15:38:32.021Z,0.60
2018-12-02T15:41:07.623Z,2.30
2018-12-02T15:43:37.374Z,0.80
2018-12-02T15:46:11.223Z,0.57
2018-12-02T15:48:41.021Z,0.60
2018-12-02T15:51:21.163Z,1.07
2018-12-02T15:53:51.152Z,0.60
2018-12-02T15:56:33.443Z,0.50
2018-12-02T15:59:07.927Z,0.57
2018-12-02T16:01:39.226Z,1.05
2018-12-02T16:04:10.747Z,0.65
2018-12-02T16:06:40.735Z,0.90
2018-12-02T16:09:11.250Z,0.85
2018-12-02T16:11:41.025Z,0.80
2018-12-02T16:14:12.429Z,1.27
2018-12-02T16:16:42.373Z,0.75
2018-12-02T16:19:21.822Z,0.73
2018-12-02T16:21:51.754Z,0.55
2018-12-02T16:24:27.454Z,0.55
2018-12-02T16:26:57.768Z,0.70
2018-12-02T16:29:40.213Z,0.40
2018-12-02T16:32:10.027Z,0.72
2018-12-02T16:34:47.234Z,0.65
2018-12-02T16:37:17.024Z,0.68
2018-12-02T16:39:48.050Z,0.80
2018-12-02T16:42:21.729Z,0.80
2018-12-02T16:44:52.976Z,0.95
2018-12-02T16:47:22.871Z,1.00
2018-12-02T16:49:52.550Z,0.78
2018-12-02T16:52:24.440Z,1.92
2018-12-02T16:54:54.788Z,0.80
2018-12-02T16:57:31.187Z,1.42
2018-12-02T17:00:08.659Z,1.07
2018-12-02T17:02:47.934Z,1.75
2018-12-02T17:05:19.511Z,1.00
2018-12-02T17:07:49.434Z,1.00
2018-12-02T17:10:24.625Z,1.30
2018-12-02T17:12:54.657Z,1.07
2018-12-02T17:15:24.424Z,1.20
2018-12-02T17:17:55.607Z,1.60
2018-12-02T17:20:26.375Z,1.37
2018-12-02T17:23:08.267Z,1.32
2018-12-02T17:25:38.033Z,1.15
2018-12-02T17:28:28.870Z,1.37
2018-12-02T17:30:59.171Z,1.77
2018-12-02T17:33:31.669Z,1.90
2018-12-02T17:36:01.381Z,0.90
2018-12-02T17:38:32.741Z,1.67
2018-12-02T17:41:02.590Z,1.30
2018-12-02T17:43:32.294Z,1.80
2018-12-02T17:46:02.356Z,1.75
2018-12-02T17:48:32.021Z,1.57
2018-12-02T17:51:03.875Z,1.75
2018-12-02T17:53:34.678Z,1.77
2018-12-02T17:56:12.140Z,1.70
2018-12-02T17:58:41.955Z,1.30
2018-12-02T18:01:12.269Z,1.47
2018-12-02T18:03:42.068Z,2.23
2018-12-02T18:06:11.891Z,1.72
2018-12-02T18:08:41.899Z,1.57
2018-12-02T18:11:11.691Z,1.27
2018-12-02T18:13:42.079Z,1.67
2018-12-02T18:16:12.372Z,2.05
2018-12-02T18:18:42.243Z,2.17
2018-12-02T18:21:15.872Z,1.20
2018-12-02T18:23:45.731Z,1.27
2018-12-02T18:26:15.734Z,1.65
2018-12-02T18:28:45.542Z,0.93
2018-12-02T18:31:15.262Z,2.08
2018-12-02T18:33:54.937Z,1.60
2018-12-02T18:36:28.389Z,1.02
2018-12-02T18:38:58.854Z,1.57
2018-12-02T18:41:33.392Z,1.30
2018-12-02T18:44:04.901Z,1.50
2018-12-02T18:46:35.054Z,0.85
2018-12-02T18:49:15.653Z,1.82
2018-12-02T18:51:45.348Z,1.67
2018-12-02T18:54:19.938Z,1.30
2018-12-02T18:56:49.658Z,0.85
2018-12-02T18:59:21.496Z,2.35
2018-12-02T19:01:51.792Z,1.10
2018-12-02T19:04:25.141Z,1.10
2018-12-02T19:06:58.569Z,1.37
2018-12-02T19:09:26.608Z,1.57
2018-12-02T19:12:00.411Z,2.75
2018-12-02T19:14:30.705Z,0.90
2018-12-02T19:17:01.761Z,0.80
2018-12-02T19:19:31.982Z,1.32
2018-12-02T19:22:01.752Z,1.95
2018-12-02T19:24:32.691Z,1.83
2018-12-02T19:27:02.461Z,1.37
2018-12-02T19:29:32.126Z,1.20
2018-12-02T19:32:01.857Z,1.82
2018-12-02T19:34:31.852Z,0.90
2018-12-02T19:37:04.436Z,1.00
2018-12-02T19:39:34.459Z,1.67
2018-12-02T19:42:04.170Z,0.90
2018-12-02T19:44:33.886Z,1.55
2018-12-02T19:47:05.691Z,0.80
2018-12-02T19:49:36.127Z,0.98
2018-12-02T19:52:05.375Z,0.90
2018-12-02T19:54:35.153Z,1.50
2018-12-02T19:57:05.262Z,1.93
2018-12-02T19:59:35.505Z,1.02
2018-12-02T20:02:07.739Z,1.30
2018-12-02T20:04:37.445Z,1.15
2018-12-02T20:07:07.288Z,2.87
2018-12-02T20:09:48.401Z,1.15
2018-12-02T20:12:18.023Z,1.22
2018-12-02T20:14:48.308Z,2.40
2018-12-02T20:17:18.133Z,1.62
2018-12-02T20:19:53.634Z,1.95
2018-12-02T20:22:24.202Z,1.10
2018-12-02T20:24:55.130Z,1.92
2018-12-02T20:27:25.414Z,1.65
2018-12-02T20:29:56.283Z,1.75
2018-12-02T20:35:21.552Z,1.40
2018-12-02T20:37:51.040Z,1.50
2018-12-02T20:40:21.732Z,1.10
2018-12-02T20:42:52.077Z,2.27
2018-12-02T20:45:21.610Z,2.10
2018-12-02T20:47:55.027Z,1.20
2018-12-02T20:50:25.257Z,1.87
2018-12-02T20:52:55.089Z,1.25
2018-12-02T20:55:26.695Z,1.47
2018-12-02T20:57:58.019Z,2.02
2018-12-02T21:00:28.312Z,1.52
2018-12-02T21:03:01.468Z,1.42
2018-12-02T21:05:55.910Z,1.10
2018-12-02T21:08:28.429Z,1.50
2018-12-02T21:11:03.486Z,1.30
2018-12-02T21:13:33.200Z,1.70
2018-12-02T21:16:03.528Z,1.75
2018-12-02T21:18:33.038Z,1.05
2018-12-02T21:21:02.756Z,2.20
2018-12-02T21:23:33.012Z,1.50
2018-12-02T21:26:04.374Z,3.33
2018-12-02T21:28:35.173Z,2.85
2018-12-02T21:31:06.554Z,3.10
2018-12-02T21:33:36.814Z,1.57
2018-12-02T21:36:07.302Z,1.77
2018-12-02T21:38:37.222Z,2.70
2018-12-02T21:41:07.606Z,2.02
2018-12-02T21:43:37.309Z,1.82
2018-12-02T21:46:08.060Z,3.75
2018-12-02T21:48:39.116Z,2.17
2018-12-02T21:51:15.884Z,2.40
2018-12-02T21:53:45.595Z,2.87
2018-12-02T21:56:15.379Z,2.22
2018-12-02T21:58:45.092Z,3.12
2018-12-02T22:01:19.669Z,2.52
2018-12-02T22:03:50.812Z,2.30
2018-12-02T22:06:20.589Z,3.15
2018-12-02T22:08:50.949Z,2.83
2018-12-02T22:11:21.177Z,2.00
2018-12-02T22:13:51.907Z,2.37
2018-12-02T22:16:21.547Z,1.97
2018-12-02T22:18:51.412Z,1.52
2018-12-02T22:21:24.101Z,0.98
2018-12-02T22:24:02.053Z,1.80
2018-12-02T22:26:32.871Z,1.62
2018-12-02T22:29:03.094Z,1.35
2018-12-02T22:31:32.743Z,1.82
2018-12-02T22:34:02.443Z,3.45
2018-12-02T22:36:32.771Z,1.05
2018-12-02T22:39:02.443Z,1.45
2018-12-02T22:41:32.257Z,2.70
2018-12-02T22:44:05.413Z,1.95
2018-12-02T22:46:35.568Z,1.30
2018-12-02T22:49:05.769Z,1.35
2018-12-02T22:51:35.490Z,1.02
2018-12-02T22:54:05.498Z,0.98
2018-12-02T22:56:35.633Z,1.42
2018-12-02T22:59:07.216Z,1.22
2018-12-02T23:01:43.598Z,1.15
2018-12-02T23:04:13.834Z,2.17
2018-12-02T23:06:44.108Z,1.02
2018-12-02T23:09:13.773Z,1.17
2018-12-02T23:11:43.511Z,1.87
2018-12-02T23:14:15.195Z,0.80
2018-12-02T23:16:54.841Z,1.15
2018-12-02T23:19:25.159Z,1.42
2018-12-02T23:21:54.872Z,2.15
2018-12-02T23:24:24.694Z,0.90
2018-12-02T23:27:02.103Z,1.72
2018-12-02T23:29:33.124Z,1.93
2018-12-02T23:32:02.915Z,0.78
2018-12-02T23:34:32.727Z,1.00
2018-12-02T23:37:04.182Z,0.70
2018-12-02T23:39:33.956Z,0.85
2018-12-02T23:42:04.140Z,0.85
2018-12-02T23:44:34.320Z,1.10
2018-12-02T23:47:13.313Z,2.50
2018-12-02T23:49:44.714Z,1.30
2018-12-02T23:52:14.449Z,0.78
2018-12-02T23:54:44.178Z,1.22
2018-12-02T23:57:16.638Z,0.60
2018-12-02T23:59:47.546Z,0.60
